SRPCH weather

Campo di Volo Pachino Fly Dream
Pachino (SR), Sicily, Italy

Public forecast

Using degrees Celsius for public forecast. Weather courtesy of forecast.io.

Closest aviation weather report (METAR) to Campo di Volo Pachino Fly Dream

Closest report is Comiso Airport, 26.1 nm (48.3 km) NW. Retrieved 2019/12/14 10:50 UTC (2 hours ago):

LICB 141050Z 31012KT 290V350 9999 FEW040 17/09 Q1006

Closest aviation forecast (TAF) to Campo di Volo Pachino Fly Dream

Closest forecast is Sigonella Navy Air Base, 40.9 nm (75.7 km) N. Retrieved 2019/12/14 12:00 UTC (44 minutes ago):

TAF TAF LICZ 141100Z 1412/1512 30026KT 9999 FEW030 SCT080 TEMPO 1412/1418 30028G40KT BECMG 1421/1423 26010KT